KCRP/CRP METAR and TAF weather

Enter ICAO airport designator
Station Type Date Time Source
KCRP METAR 2020/04/08 21:51 UTC NOAA

KCRP 082151Z 13011KT 10SM FEW030 FEW080 SCT200 BKN250 31/23 A2984 RMK AO2 SLP103 T03110228


Station Type Date Time Source
KCRP Decoded METAR 2020/04/08 21:51 UTC NOAA

CORPUS CHRISTI INTERNATIONAL , TX, United States (KCRP) 27-46N 97-31W 16M
Apr 08, 2020 - 05:51 PM EDT / 2020.04.08 2151 UTC
Wind: from the SE (130 degrees) at 13 MPH (11 KT):0
Visibility: 10 mile(s):0
Sky conditions: mostly cloudy
Temperature: 88.0 F (31.1 C)
Heat index: 95.5 F (35.3 C):1
Dew Point: 73.0 F (22.8 C)
Relative Humidity: 61%
Pressure (altimeter): 29.84 in. Hg (1010 hPa)
ob: KCRP 082151Z 13011KT 10SM FEW030 FEW080 SCT200 BKN250 31/23 A2984 RMK AO2 SLP103 T03110228
cycle: 22

Station Type Date Time Source
KCRP TAF 2020/04/08 18:42 UTC NOAA

TAF KCRP 081740Z 0818/0918 VRB04KT P6SM SCT025 BKN250
FM082000 15009KT P6SM SCT250
FM090600 17005KT 6SM BR SCT008 BKN200
TEMPO 0907/0909 3SM BR BKN008 OVC250
FM090900 VRB02KT 2SM BR OVC006
TEMPO 0910/0913 1/2SM FG OVC006
FM091500 18006KT P6SM SCT025 BKN150

Example: see airport list